createdAt,value
2024-02-01T00:00:44.834Z,8.17
2024-02-01T00:03:11.944Z,7.70
2024-02-01T00:05:39.264Z,8.27
2024-02-01T00:08:06.689Z,8.03
2024-02-01T00:10:33.700Z,8.90
2024-02-01T00:13:00.846Z,8.67
2024-02-01T00:15:28.386Z,9.10
2024-02-01T00:17:55.675Z,9.17
2024-02-01T00:20:22.751Z,10.33
2024-02-01T00:22:49.722Z,9.87
2024-02-01T00:25:16.757Z,9.97
2024-02-01T00:27:43.810Z,11.90
2024-02-01T00:30:11.238Z,12.27
2024-02-01T00:32:38.308Z,13.33
2024-02-01T00:35:05.961Z,12.73
2024-02-01T00:37:33.076Z,12.93
2024-02-01T00:40:01.749Z,12.40
2024-02-01T00:42:30.899Z,13.23
2024-02-01T00:44:57.900Z,12.03
2024-02-01T00:47:24.995Z,12.53
2024-02-01T00:49:52.076Z,15.60
2024-02-01T00:52:19.128Z,14.10
2024-02-01T00:54:46.369Z,12.20
2024-02-01T00:57:13.439Z,11.70
2024-02-01T00:59:40.668Z,12.13
2024-02-01T01:02:08.122Z,11.20
2024-02-01T01:04:35.271Z,10.50
2024-02-01T01:07:02.370Z,10.93
2024-02-01T01:09:29.479Z,10.83
2024-02-01T01:11:56.608Z,11.20
2024-02-01T01:14:26.528Z,10.40
2024-02-01T01:16:53.541Z,9.40
2024-02-01T01:19:20.549Z,9.70
2024-02-01T01:21:47.829Z,16.67
2024-02-01T01:24:14.863Z,17.77
2024-02-01T01:26:41.976Z,11.50
2024-02-01T01:29:09.048Z,14.23
2024-02-01T01:31:36.141Z,12.87
2024-02-01T01:34:03.272Z,12.20
2024-02-01T01:36:30.428Z,9.97
2024-02-01T01:38:57.450Z,9.23
2024-02-01T01:41:24.501Z,10.17
2024-02-01T01:43:51.575Z,8.60
2024-02-01T01:46:18.662Z,7.27
2024-02-01T01:48:45.962Z,7.80
2024-02-01T01:51:15.799Z,7.13
2024-02-01T01:53:44.957Z,7.53
2024-02-01T01:56:13.864Z,8.40
2024-02-01T01:58:42.108Z,6.60
2024-02-01T02:01:10.245Z,6.60
2024-02-01T02:03:41.939Z,6.47
2024-02-01T02:06:09.567Z,6.87
2024-02-01T02:08:37.000Z,8.27
2024-02-01T02:11:05.545Z,7.77
2024-02-01T02:13:33.081Z,7.40
2024-02-01T02:16:00.131Z,8.37
2024-02-01T02:18:27.365Z,9.70
2024-02-01T02:20:55.509Z,12.03
2024-02-01T02:23:22.658Z,12.07
2024-02-01T02:25:50.316Z,11.70
2024-02-01T02:28:17.448Z,12.27
2024-02-01T02:30:44.695Z,11.23
2024-02-01T02:33:11.897Z,10.93
2024-02-01T02:35:39.258Z,10.23
2024-02-01T02:38:06.363Z,9.90
2024-02-01T02:40:33.855Z,9.87
2024-02-01T02:43:02.220Z,10.30
2024-02-01T02:45:29.421Z,10.47
2024-02-01T02:47:59.093Z,10.67
2024-02-01T02:50:26.406Z,9.87
2024-02-01T02:52:55.167Z,10.30
2024-02-01T02:55:22.474Z,10.00
2024-02-01T02:57:49.866Z,10.00
2024-02-01T03:00:20.564Z,9.77
2024-02-01T03:02:49.352Z,10.13
2024-02-01T03:05:17.958Z,10.33
2024-02-01T03:07:45.519Z,11.10
2024-02-01T03:10:13.811Z,10.97
2024-02-01T03:12:41.660Z,10.63
2024-02-01T03:15:10.510Z,11.57
2024-02-01T03:17:42.654Z,11.80
2024-02-01T03:20:24.003Z,11.30
2024-02-01T03:22:58.258Z,11.43
2024-02-01T03:25:29.791Z,10.87
2024-02-01T03:28:02.329Z,10.23
2024-02-01T03:30:30.488Z,11.10
2024-02-01T03:32:58.889Z,10.57
2024-02-01T03:35:25.936Z,9.20
2024-02-01T03:37:52.957Z,10.70
2024-02-01T03:40:21.037Z,10.70
2024-02-01T03:42:48.622Z,11.40
2024-02-01T03:45:16.187Z,11.67
2024-02-01T03:47:46.652Z,12.70
2024-02-01T03:50:14.431Z,13.00
2024-02-01T03:52:47.414Z,12.77
2024-02-01T03:55:21.073Z,11.07
2024-02-01T03:57:48.995Z,10.60
2024-02-01T04:00:27.001Z,11.23
2024-02-01T04:03:05.048Z,9.37
2024-02-01T04:05:39.663Z,9.37
2024-02-01T04:08:10.159Z,8.53
2024-02-01T04:10:38.509Z,8.23
2024-02-01T04:13:06.820Z,7.50
2024-02-01T04:15:37.014Z,7.53
2024-02-01T04:18:11.734Z,8.13
2024-02-01T04:20:40.521Z,9.07
2024-02-01T04:23:09.075Z,9.03
2024-02-01T04:25:36.252Z,8.17
2024-02-01T04:28:10.208Z,9.20
2024-02-01T04:30:38.643Z,9.97
2024-02-01T04:33:06.001Z,8.03
2024-02-01T04:35:33.314Z,8.47
2024-02-01T04:38:00.945Z,8.67
2024-02-01T04:40:28.605Z,7.97
2024-02-01T04:42:57.692Z,7.67
2024-02-01T04:45:24.971Z,7.47
2024-02-01T04:47:52.120Z,7.50
2024-02-01T04:50:19.480Z,9.47
2024-02-01T04:52:46.730Z,8.07
2024-02-01T04:55:13.994Z,9.37
2024-02-01T04:57:42.159Z,8.83
2024-02-01T05:00:18.470Z,9.20
2024-02-01T05:02:49.116Z,10.10
2024-02-01T05:05:18.273Z,12.87
2024-02-01T05:07:45.406Z,14.30
2024-02-01T05:10:14.295Z,16.70
2024-02-01T05:12:42.631Z,15.97
2024-02-01T05:15:11.148Z,16.20
2024-02-01T05:17:38.976Z,16.27
2024-02-01T05:20:10.309Z,21.27
2024-02-01T05:22:37.622Z,21.50
2024-02-01T05:25:17.473Z,23.47
2024-02-01T05:27:52.412Z,34.83
2024-02-01T05:30:22.761Z,26.33
2024-02-01T05:32:55.002Z,23.97
2024-02-01T05:35:35.269Z,18.37
2024-02-01T05:38:02.992Z,17.50
2024-02-01T05:40:31.054Z,20.50
2024-02-01T05:42:58.645Z,21.57
2024-02-01T05:45:30.630Z,28.17
2024-02-01T05:47:59.501Z,23.47
2024-02-01T05:50:26.999Z,22.00
2024-02-01T05:52:54.104Z,20.37
2024-02-01T05:55:21.449Z,21.73
2024-02-01T05:57:48.492Z,22.57
2024-02-01T06:00:21.053Z,22.10
2024-02-01T06:02:48.714Z,21.20
2024-02-01T06:05:15.923Z,23.73
2024-02-01T06:07:43.454Z,20.37
2024-02-01T06:10:10.519Z,19.80
2024-02-01T06:12:39.568Z,16.20
2024-02-01T06:15:08.591Z,16.40
2024-02-01T06:17:36.464Z,16.93
2024-02-01T06:20:04.265Z,16.30
2024-02-01T06:22:32.460Z,16.60
2024-02-01T06:24:59.763Z,17.83
2024-02-01T06:27:26.972Z,18.60
2024-02-01T06:29:54.030Z,17.10
2024-02-01T06:32:22.381Z,16.33
2024-02-01T06:34:57.329Z,15.10
2024-02-01T06:37:24.660Z,13.50
2024-02-01T06:40:10.805Z,11.43
2024-02-01T06:43:10.598Z,11.10
2024-02-01T06:45:59.451Z,10.70
2024-02-01T06:48:42.501Z,12.17
2024-02-01T06:51:23.544Z,9.70
2024-02-01T06:54:07.254Z,13.53
2024-02-01T06:56:52.694Z,8.60
2024-02-01T06:59:35.447Z,11.03
2024-02-01T07:02:28.987Z,11.87
2024-02-01T07:05:05.343Z,11.83
2024-02-01T07:07:43.165Z,13.10
2024-02-01T07:10:22.214Z,10.57
2024-02-01T07:13:08.090Z,9.80
2024-02-01T07:15:35.274Z,8.93
2024-02-01T07:18:10.836Z,10.80
2024-02-01T07:20:48.222Z,10.20
2024-02-01T07:23:23.071Z,10.10
2024-02-01T07:26:07.750Z,11.30
2024-02-01T07:28:53.341Z,7.70
2024-02-01T07:31:38.901Z,8.80
2024-02-01T07:34:24.603Z,9.07
2024-02-01T07:37:10.029Z,8.00
2024-02-01T07:39:55.561Z,7.23
2024-02-01T07:42:41.096Z,6.90
2024-02-01T07:45:26.981Z,7.23
2024-02-01T07:48:13.145Z,7.53
2024-02-01T07:50:59.183Z,6.37
2024-02-01T07:53:44.713Z,7.47
2024-02-01T07:56:30.755Z,7.50
2024-02-01T07:59:08.689Z,6.93
2024-02-01T08:01:49.617Z,7.63
2024-02-01T08:04:19.169Z,9.00
2024-02-01T08:07:05.210Z,8.50
2024-02-01T08:09:32.435Z,9.27
2024-02-01T08:11:59.592Z,10.00
2024-02-01T08:14:26.665Z,7.87
2024-02-01T08:16:53.665Z,8.43
2024-02-01T08:21:52.681Z,9.07
2024-02-01T08:24:24.593Z,9.50
2024-02-01T08:26:52.541Z,10.43
2024-02-01T08:29:25.872Z,10.93
2024-02-01T08:31:55.110Z,9.80
2024-02-01T08:34:22.357Z,11.03
2024-02-01T08:36:49.431Z,15.60
2024-02-01T08:39:17.460Z,15.10
2024-02-01T08:41:45.471Z,16.17
2024-02-01T08:44:12.541Z,16.30
2024-02-01T08:46:39.808Z,15.70
2024-02-01T08:49:07.616Z,14.83
2024-02-01T08:51:37.241Z,14.97
2024-02-01T08:54:04.450Z,11.83
2024-02-01T08:56:38.216Z,12.27
2024-02-01T08:59:06.885Z,12.30
2024-02-01T09:01:35.325Z,12.77
2024-02-01T09:04:15.779Z,11.90
2024-02-01T09:06:56.229Z,11.90
2024-02-01T09:09:30.530Z,12.40
2024-02-01T09:11:58.176Z,11.47
2024-02-01T09:14:25.505Z,12.27
2024-02-01T09:16:54.790Z,10.60
2024-02-01T09:19:22.347Z,11.80
2024-02-01T09:21:49.636Z,12.97
2024-02-01T09:24:19.221Z,12.73
2024-02-01T09:26:47.867Z,14.43
2024-02-01T09:29:15.163Z,13.93
2024-02-01T09:31:42.207Z,10.43
2024-02-01T09:34:16.160Z,12.37
2024-02-01T09:36:44.429Z,10.10
2024-02-01T09:39:13.100Z,10.40
2024-02-01T09:41:41.504Z,9.50
2024-02-01T09:44:10.666Z,11.37
2024-02-01T09:46:38.116Z,10.20
2024-02-01T09:49:12.765Z,10.50
2024-02-01T09:51:48.368Z,9.30
2024-02-01T09:54:15.867Z,9.97
2024-02-01T09:56:44.152Z,9.87
2024-02-01T09:59:13.641Z,9.53
2024-02-01T10:01:40.951Z,9.23
2024-02-01T10:04:14.104Z,11.40
2024-02-01T10:06:41.451Z,8.20
2024-02-01T10:09:23.782Z,8.07
2024-02-01T10:11:53.112Z,9.63
2024-02-01T10:14:21.089Z,9.60
2024-02-01T10:16:48.209Z,10.20
2024-02-01T10:19:16.248Z,11.57
2024-02-01T10:21:56.193Z,9.57
2024-02-01T10:24:26.467Z,11.77
2024-02-01T10:27:06.245Z,11.17
2024-02-01T10:29:33.899Z,8.00
2024-02-01T10:32:03.220Z,8.47
2024-02-01T10:34:31.203Z,9.87
2024-02-01T10:37:02.323Z,13.20
2024-02-01T10:39:35.247Z,8.13
2024-02-01T10:42:10.183Z,7.67
2024-02-01T10:44:42.369Z,7.40
2024-02-01T10:47:14.856Z,8.07
2024-02-01T10:49:54.006Z,5.87
2024-02-01T10:52:22.881Z,7.60
2024-02-01T10:54:53.342Z,7.30
2024-02-01T10:57:21.429Z,8.60
2024-02-01T10:59:51.694Z,7.50
2024-02-01T11:02:20.766Z,5.93
2024-02-01T11:04:49.836Z,6.43
2024-02-01T11:07:36.186Z,6.70
2024-02-01T11:10:14.371Z,6.73
2024-02-01T11:12:41.807Z,7.50
2024-02-01T11:15:18.112Z,8.23
2024-02-01T11:17:45.541Z,7.20
2024-02-01T11:20:13.928Z,7.00
2024-02-01T11:22:42.962Z,8.00
2024-02-01T11:25:11.876Z,8.70
2024-02-01T11:27:39.112Z,12.67
2024-02-01T11:30:23.363Z,11.20
2024-02-01T11:32:52.021Z,4.57
2024-02-01T11:35:21.375Z,4.17
2024-02-01T11:37:55.690Z,4.67
2024-02-01T11:40:22.722Z,4.40
2024-02-01T11:42:51.499Z,5.27
2024-02-01T11:45:19.001Z,4.50
2024-02-01T11:47:46.451Z,4.50
2024-02-01T11:50:15.240Z,4.53
2024-02-01T11:53:09.376Z,4.37
2024-02-01T11:55:36.993Z,4.43
2024-02-01T11:58:13.330Z,4.57
2024-02-01T12:00:51.301Z,4.53
2024-02-01T12:03:33.388Z,4.90
2024-02-01T12:06:01.335Z,4.33
2024-02-01T12:08:33.337Z,4.13
2024-02-01T12:11:02.259Z,4.13
2024-02-01T12:13:29.343Z,3.73
2024-02-01T12:15:59.482Z,5.00
2024-02-01T12:18:26.876Z,4.70
2024-02-01T12:20:54.435Z,4.80
2024-02-01T12:23:21.551Z,4.70
2024-02-01T12:25:49.182Z,5.17
2024-02-01T12:28:16.394Z,3.70
2024-02-01T12:30:45.971Z,4.93
2024-02-01T12:33:14.521Z,3.63
2024-02-01T12:35:46.112Z,4.00
2024-02-01T12:38:16.306Z,3.67
2024-02-01T12:40:46.441Z,4.10
2024-02-01T12:43:14.405Z,4.40
2024-02-01T12:45:48.270Z,3.27
2024-02-01T12:48:17.387Z,3.37
2024-02-01T12:50:45.426Z,3.77
2024-02-01T12:53:14.093Z,4.23
2024-02-01T12:55:41.376Z,3.83
2024-02-01T12:58:08.416Z,3.73
2024-02-01T13:00:35.553Z,3.87
2024-02-01T13:03:02.869Z,3.60
2024-02-01T13:05:30.030Z,4.30
2024-02-01T13:07:57.397Z,4.43
2024-02-01T13:10:24.482Z,4.60
2024-02-01T13:12:59.302Z,4.80
2024-02-01T13:15:27.429Z,4.23
2024-02-01T13:17:56.250Z,4.00
2024-02-01T13:20:24.473Z,3.80
2024-02-01T13:22:52.767Z,3.73
2024-02-01T13:25:21.459Z,4.50
2024-02-01T13:27:50.900Z,6.63
2024-02-01T13:30:19.788Z,4.67
2024-02-01T13:32:49.893Z,5.20
2024-02-01T13:35:17.257Z,3.97
2024-02-01T13:37:47.736Z,4.07
2024-02-01T13:40:18.769Z,3.30
2024-02-01T13:42:47.031Z,4.63
2024-02-01T13:45:14.967Z,4.30
2024-02-01T13:47:52.775Z,4.60
2024-02-01T13:50:26.023Z,5.23
2024-02-01T13:52:58.338Z,4.53
2024-02-01T13:55:26.668Z,5.10
2024-02-01T13:57:54.564Z,3.90
2024-02-01T14:00:22.051Z,3.87
2024-02-01T14:02:52.028Z,3.50
2024-02-01T14:05:23.860Z,4.87
2024-02-01T14:07:53.482Z,5.07
2024-02-01T14:10:21.999Z,5.97
2024-02-01T14:12:49.219Z,5.13
2024-02-01T14:15:16.623Z,4.97
2024-02-01T14:17:43.972Z,5.83
2024-02-01T14:20:15.159Z,4.23
2024-02-01T14:22:43.449Z,4.93
2024-02-01T14:25:14.646Z,4.43
2024-02-01T14:27:42.324Z,5.07
2024-02-01T14:30:17.915Z,3.17
2024-02-01T14:32:47.284Z,4.27
2024-02-01T14:35:17.744Z,6.43
2024-02-01T14:37:45.418Z,6.80
2024-02-01T14:40:14.324Z,4.17
2024-02-01T14:42:43.156Z,4.97
2024-02-01T14:45:10.969Z,4.97
2024-02-01T14:47:38.712Z,4.67
2024-02-01T14:50:06.672Z,6.03
2024-02-01T14:52:33.993Z,5.50
2024-02-01T14:55:01.155Z,5.73
2024-02-01T15:04:14.769Z,8.53
2024-02-01T15:06:44.318Z,9.13
2024-02-01T15:09:12.457Z,9.63
2024-02-01T15:11:39.647Z,9.80
2024-02-01T15:14:06.693Z,10.53
2024-02-01T15:16:34.465Z,9.10
2024-02-01T15:19:05.040Z,10.63
2024-02-01T15:21:32.248Z,11.37
2024-02-01T15:24:02.063Z,12.40
2024-02-01T15:26:29.498Z,12.80
2024-02-01T15:28:57.503Z,19.43
2024-02-01T15:31:24.679Z,19.23
2024-02-01T15:33:54.127Z,13.40
2024-02-01T15:36:21.901Z,12.43
2024-02-01T15:38:50.178Z,12.17
2024-02-01T15:41:19.260Z,11.37
2024-02-01T15:43:46.571Z,13.33
2024-02-01T15:46:13.715Z,15.03
2024-02-01T15:48:44.039Z,20.03
2024-02-01T15:51:16.325Z,20.47
